Archival Weather

Abadan

Abadan, Iran (OIAA)

Report from: Tuesday, July 19, 2022 5:00 AM UTC
Current time: Sunday, July 14, 2024 1:04 AM UTC

Current weather – Weather history – Daily summaries
Weather forecast

Temperature36.0°C (96.8°F)
Heat index34.3°C (93.7°F)
Dew point10.0°C (50.0°F)
Winds 6 kts (3.1 m/s, 6.9 mph) West-Northwest (290°)
Clouds Sky clear
Altimeter29.47 in.Hg (998 mB)
Relative humidity21 %
Density altitude3,065 ft. (934 m)
Remarks Ceiling and visibility OK
Flight conditions Visual Meteorological Conditions
Raw dataOIAA 190500Z 29006KT CAVOK 36/10 Q0998
An error has occurred. This application may no longer respond until reloaded. Reload 🗙